Time;durP1;ratioP1;P1;durP2;ratioP2;P2;SDS_P1;SDS_P2;PMS_P1;PMS_P2;Temp;Humidity;BMP_temperature;BMP_pressure;BME280_temperature;BME280_humidity;BME280_pressure;Samples;Min_cycle;Max_cycle;Signal;HPM_P1;HPM_P2
2022/01/03 00:00:10;;;;;;;6.90;3.60;;;;;;;8.56;72.50;97812.16;104272;1324;22560;-84
2022/01/03 00:02:59;;;;;;;9.70;4.60;;;;;;;8.52;72.40;97803.63;104274;1334;22231;-83
2022/01/03 00:05:26;;;;;;;4.90;3.00;;;;;;;8.53;72.16;97801.64;104176;1325;137766;-84
2022/01/03 00:07:53;;;;;;;6.90;4.10;;;;;;;8.54;72.56;97807.24;104145;1325;23162;-84
2022/01/03 00:10:20;;;;;;;8.30;5.00;;;;;;;8.55;72.44;97814.36;104082;1330;137703;-84
2022/01/03 00:12:49;;;;;;;7.70;4.20;;;;;;;8.56;72.46;97810.21;104127;1334;22552;-84
2022/01/03 00:15:30;;;;;;;7.90;4.00;;;;;;;8.57;72.35;97801.75;104260;1325;22839;-84
2022/01/03 00:17:57;;;;;;;8.10;3.80;;;;;;;8.56;72.29;97802.39;104127;1331;137126;-84
2022/01/03 00:20:25;;;;;;;5.40;3.50;;;;;;;8.59;72.29;97797.27;104291;1334;22465;-84
2022/01/03 00:22:55;;;;;;;7.10;3.90;;;;;;;8.61;72.13;97808.92;104161;1323;137881;-85
2022/01/03 00:25:23;;;;;;;8.40;4.50;;;;;;;8.61;72.54;97809.26;104195;1325;22556;-85
2022/01/03 00:28:04;;;;;;;7.80;4.30;;;;;;;8.59;72.52;97812.64;103998;1327;137687;-84
2022/01/03 00:30:38;;;;;;;7.10;3.40;;;;;;;8.58;72.32;97817.19;104222;1324;22822;-85
2022/01/03 00:33:05;;;;;;;7.40;4.00;;;;;;;8.57;72.39;97810.27;104229;1325;23153;-84
2022/01/03 00:35:37;;;;;;;7.40;3.60;;;;;;;8.56;72.50;97816.55;104199;1323;137514;-84
2022/01/03 00:38:07;;;;;;;5.70;3.60;;;;;;;8.54;72.57;97807.04;104123;1322;22527;-85
2022/01/03 00:40:35;;;;;;;6.80;3.90;;;;;;;8.55;72.54;97790.61;104171;1322;138319;-85
2022/01/03 00:43:03;;;;;;;8.30;4.60;;;;;;;8.56;72.46;97791.00;104277;1322;22267;-85
2022/01/03 00:45:32;;;;;;;7.20;4.30;;;;;;;8.57;72.93;97787.42;104281;1334;22767;-85
2022/01/03 00:47:58;;;;;;;7.70;4.20;;;;;;;8.55;72.71;97785.02;103994;1334;137576;-85
2022/01/03 00:50:24;;;;;;;6.80;4.00;;;;;;;8.53;72.90;97797.90;104079;1334;23264;-85
2022/01/03 00:52:52;;;;;;;7.00;3.90;;;;;;;8.50;72.71;97792.37;104122;1333;137413;-84
2022/01/03 00:55:21;;;;;;;8.10;4.00;;;;;;;8.48;72.79;97795.46;104130;1326;23155;-84
2022/01/03 00:58:05;;;;;;;7.80;4.20;;;;;;;8.47;72.86;97788.62;103993;1331;139618;-83
2022/01/03 01:00:36;;;;;;;6.40;3.80;;;;;;;8.46;73.09;97777.48;104240;1322;22752;-85
2022/01/03 01:03:10;;;;;;;7.40;3.80;;;;;;;8.45;73.01;97777.36;104232;1326;22525;-83
2022/01/03 01:05:53;;;;;;;7.10;4.00;;;;;;;8.44;73.08;97774.10;104111;1324;137669;-84
2022/01/03 01:08:26;;;;;;;8.10;3.90;;;;;;;8.42;73.51;97772.85;104216;1322;22224;-84
2022/01/03 01:10:58;;;;;;;9.10;4.40;;;;;;;8.40;73.43;97772.86;104052;1325;137595;-84
2022/01/03 01:13:24;;;;;;;5.90;3.60;;;;;;;8.36;73.46;97767.44;104262;1334;22560;-85
2022/01/03 01:15:51;;;;;;;7.90;3.90;;;;;;;8.34;73.49;97763.93;104092;1325;138379;-84
2022/01/03 01:18:18;;;;;;;8.50;4.10;;;;;;;8.33;73.71;97767.92;104251;1325;22432;-84
2022/01/03 01:20:48;;;;;;;5.70;3.70;;;;;;;8.32;73.60;97762.36;104127;1333;22634;-84
2022/01/03 01:23:15;;;;;;;8.30;4.60;;;;;;;8.30;73.86;97761.48;104014;1333;137938;-84
2022/01/03 01:28:13;;;;;;;6.90;4.10;;;;;;;8.26;74.04;97758.44;103987;1334;137797;-84
2022/01/03 01:30:40;;;;;;;7.40;4.10;;;;;;;8.25;74.15;97768.60;104283;1322;22598;-84
2022/01/03 01:33:11;;;;;;;6.40;3.80;;;;;;;8.23;74.12;97773.18;104298;1322;22572;-84
2022/01/03 01:35:57;;;;;;;6.30;3.80;;;;;;;8.23;74.05;97770.70;104265;1322;138023;-84
2022/01/03 01:38:33;;;;;;;8.30;4.00;;;;;;;8.23;74.30;97770.81;104199;1333;23026;-84
2022/01/03 01:41:03;;;;;;;8.40;4.50;;;;;;;8.23;74.25;97763.87;104155;1333;138536;-85
2022/01/03 01:43:43;;;;;;;6.40;3.50;;;;;;;8.24;74.43;97757.80;104174;1325;22396;-84
2022/01/03 01:46:16;;;;;;;5.30;3.60;;;;;;;8.23;74.26;97762.44;104068;1333;137785;-85
2022/01/03 01:48:48;;;;;;;5.20;3.40;;;;;;;8.22;74.34;97762.77;104085;1326;22999;-84
2022/01/03 01:51:19;;;;;;;7.00;4.00;;;;;;;8.23;74.30;97759.30;104150;1334;31901;-84
2022/01/03 01:53:53;;;;;;;5.70;3.90;;;;;;;8.23;74.55;97749.15;104046;1323;137849;-85
2022/01/03 01:56:34;;;;;;;7.10;4.00;;;;;;;8.23;74.39;97744.77;104182;1323;22673;-85
2022/01/03 01:59:31;;;;;;;6.60;3.90;;;;;;;8.23;74.52;97748.39;104035;1332;138072;-84
2022/01/03 02:02:14;;;;;;;7.10;3.80;;;;;;;8.22;74.41;97747.35;104163;1325;30648;-84
2022/01/03 02:04:47;;;;;;;7.40;4.10;;;;;;;8.21;74.63;97750.59;104035;1325;138529;-84
2022/01/03 02:07:51;;;;;;;6.70;3.60;;;;;;;8.21;74.40;97753.67;104132;1335;23144;-84
2022/01/03 02:10:24;;;;;;;6.40;4.30;;;;;;;8.21;74.71;97758.84;104167;1322;137829;-85
2022/01/03 02:13:11;;;;;;;;;;;;;;;8.22;74.80;97753.00;104203;1333;22563;-85
2022/01/03 02:15:38;;;;;;;6.40;3.70;;;;;;;8.20;74.71;97759.36;104202;1325;22582;-83
2022/01/03 02:18:06;;;;;;;7.40;4.20;;;;;;;8.17;75.03;97751.89;104091;1328;22570;-84
2022/01/03 02:20:33;;;;;;;6.10;3.40;;;;;;;8.15;74.92;97748.34;104049;1335;23020;-84
2022/01/03 02:23:04;;;;;;;8.10;4.30;;;;;;;8.13;74.97;97749.89;103989;1326;138716;-84
2022/01/03 02:25:33;;;;;;;5.20;3.60;;;;;;;8.14;75.02;97757.13;104197;1324;22617;-84
2022/01/03 02:27:59;;;;;;;7.30;4.10;;;;;;;8.15;74.82;97756.85;104198;1334;22592;-84
2022/01/03 02:30:31;;;;;;;5.60;3.40;;;;;;;8.17;75.07;97744.58;104068;1334;139460;-84
2022/01/03 02:32:58;;;;;;;5.50;3.70;;;;;;;8.19;75.01;97739.02;104219;1334;22475;-84
2022/01/03 02:35:25;;;;;;;4.30;3.10;;;;;;;8.21;74.89;97732.80;104008;1325;137398;-84
2022/01/03 02:37:53;;;;;;;5.80;3.60;;;;;;;8.22;74.94;97720.78;104320;1322;23594;-84
2022/01/03 02:40:20;;;;;;;5.90;3.70;;;;;;;8.23;74.90;97716.61;104025;1333;138264;-84
2022/01/03 02:42:49;;;;;;;5.70;3.50;;;;;;;8.25;74.91;97725.06;104146;1325;31686;-83
2022/01/03 02:45:21;;;;;;;6.20;3.50;;;;;;;8.27;74.77;97716.78;104112;1326;22597;-82
2022/01/03 02:47:59;;;;;;;6.90;3.60;;;;;;;8.29;74.68;97704.77;104002;1334;139965;-83
2022/01/03 02:50:30;;;;;;;4.90;3.40;;;;;;;8.30;74.57;97703.48;104158;1322;22520;-82
2022/01/03 02:52:56;;;;;;;5.30;3.40;;;;;;;8.29;74.54;97702.06;103976;1327;137556;-83
2022/01/03 02:55:26;;;;;;;6.00;3.20;;;;;;;8.27;74.56;97694.80;104143;1333;23114;-83
2022/01/03 02:57:55;;;;;;;6.20;3.30;;;;;;;8.26;74.49;97700.93;104230;1325;22576;-82
2022/01/03 03:00:28;;;;;;;5.30;2.90;;;;;;;8.25;74.52;97703.52;104009;1318;137893;-82
2022/01/03 03:02:55;;;;;;;6.90;3.50;;;;;;;8.24;74.60;97699.17;104125;1322;22580;-83
2022/01/03 03:05:23;;;;;;;7.10;3.20;;;;;;;8.22;74.50;97700.27;104089;1332;137711;-83
2022/01/03 03:07:53;;;;;;;4.40;3.00;;;;;;;8.20;74.68;97700.50;104155;1325;22525;-83
2022/01/03 03:10:24;;;;;;;5.70;3.30;;;;;;;8.16;74.70;97700.25;104083;1323;137594;-83
2022/01/03 03:12:52;;;;;;;6.10;3.20;;;;;;;8.13;74.49;97707.80;104223;1323;22531;-83
2022/01/03 03:15:19;;;;;;;6.00;3.10;;;;;;;8.10;74.62;97709.54;104197;1332;22690;-82
2022/01/03 03:17:47;;;;;;;5.20;3.20;;;;;;;8.09;74.68;97710.91;104117;1332;138864;-82
2022/01/03 03:20:20;;;;;;;4.40;2.90;;;;;;;8.09;74.80;97711.46;104268;1322;22351;-81
2022/01/03 03:22:49;;;;;;;5.00;3.30;;;;;;;8.07;74.81;97710.20;103986;1328;137846;-83
2022/01/03 03:25:23;;;;;;;5.50;3.00;;;;;;;8.07;75.18;97707.73;104210;1324;22477;-83
2022/01/03 03:27:57;;;;;;;4.70;3.10;;;;;;;8.04;74.96;97702.01;104251;1333;22558;-82
2022/01/03 03:30:31;;;;;;;6.80;3.50;;;;;;;8.01;75.23;97694.38;104098;1325;138731;-83
2022/01/03 03:33:16;;;;;;;5.10;3.50;;;;;;;7.97;75.37;97687.16;104134;1325;22522;-83
2022/01/03 03:35:45;;;;;;;4.80;3.00;;;;;;;7.93;75.42;97689.89;104114;1325;137557;-82
2022/01/03 03:38:12;;;;;;;6.40;3.20;;;;;;;7.92;75.35;97682.72;104144;1325;22469;-83
2022/01/03 03:40:40;;;;;;;6.00;3.20;;;;;;;7.91;75.51;97679.30;104223;1321;138006;-82
2022/01/03 03:43:14;;;;;;;5.60;3.20;;;;;;;7.92;75.47;97681.04;104212;1316;22858;-83
2022/01/03 03:45:42;;;;;;;5.50;3.40;;;;;;;7.93;75.73;97684.69;104169;1325;22482;-82
2022/01/03 03:48:12;;;;;;;5.20;3.00;;;;;;;7.94;75.56;97685.75;104128;1322;137711;-83
2022/01/03 03:50:38;;;;;;;8.60;3.80;;;;;;;7.95;75.88;97687.34;104172;1320;23097;-83
2022/01/03 03:53:08;;;;;;;8.10;3.60;;;;;;;7.96;75.74;97690.33;104010;1334;137590;-83
2022/01/03 03:55:35;;;;;;;3.60;2.80;;;;;;;7.97;75.92;97692.26;104256;1324;22597;-83
2022/01/03 03:58:03;;;;;;;6.90;3.30;;;;;;;8.01;75.91;97687.92;104240;1322;22521;-82
2022/01/03 04:00:35;;;;;;;4.30;3.00;;;;;;;8.03;75.66;97684.31;104131;1324;137434;-83
2022/01/03 04:03:02;;;;;;;5.50;3.20;;;;;;;8.05;75.72;97679.14;104229;1324;22498;-83
2022/01/03 04:05:29;;;;;;;6.70;3.00;;;;;;;8.06;75.55;97671.13;104130;1334;137746;-83
2022/01/03 04:07:56;;;;;;;6.10;3.00;;;;;;;8.06;75.70;97674.05;104220;1334;22583;-82
2022/01/03 04:10:22;;;;;;;6.40;3.60;;;;;;;8.07;75.55;97673.09;104126;1325;137618;-83
2022/01/03 04:12:50;;;;;;;8.60;4.00;;;;;;;8.07;75.59;97673.31;104149;1325;22542;-83
2022/01/03 04:15:17;;;;;;;6.90;3.50;;;;;;;8.10;75.42;97673.41;104301;1320;23133;-82
2022/01/03 04:17:43;;;;;;;4.80;2.90;;;;;;;8.11;75.54;97670.27;104163;1333;138100;-83
2022/01/03 04:20:15;;;;;;;5.30;3.30;;;;;;;8.13;75.42;97672.16;104117;1325;22564;-83
2022/01/03 04:22:42;;;;;;;5.40;2.90;;;;;;;8.15;75.57;97676.52;104113;1322;137635;-83
2022/01/03 04:25:10;;;;;;;4.90;2.40;;;;;;;8.16;75.37;97674.27;104212;1333;22290;-83
2022/01/03 04:27:36;;;;;;;6.40;2.60;;;;;;;8.17;75.48;97673.95;104145;1334;22551;-83
2022/01/03 04:30:05;;;;;;;7.70;2.50;;;;;;;8.19;75.25;97671.27;104053;1327;138177;-82
2022/01/03 04:32:31;;;;;;;3.90;2.30;;;;;;;8.22;75.29;97670.77;104135;1325;22477;-82
2022/01/03 04:34:57;;;;;;;4.80;2.70;;;;;;;8.25;75.34;97662.52;104097;1324;138281;-83
2022/01/03 04:37:24;;;;;;;6.00;2.50;;;;;;;8.26;75.11;97666.54;104215;1325;22540;-82
2022/01/03 04:39:50;;;;;;;5.40;3.10;;;;;;;8.26;75.35;97667.67;104277;1322;22571;-83
2022/01/03 04:42:17;;;;;;;7.90;3.60;;;;;;;8.26;75.26;97659.59;104122;1323;137573;-83
2022/01/03 04:44:58;;;;;;;5.70;2.90;;;;;;;8.27;75.05;97649.89;104287;1324;22517;-83
2022/01/03 04:47:26;;;;;;;7.10;2.90;;;;;;;8.27;75.22;97641.27;104099;1334;137913;-82
2022/01/03 04:49:53;;;;;;;5.20;2.30;;;;;;;8.28;75.02;97642.04;104170;1335;22626;-82
2022/01/03 04:52:19;;;;;;;5.00;2.50;;;;;;;8.30;75.05;97645.54;104179;1322;138257;-82
2022/01/03 04:54:45;;;;;;;4.00;1.80;;;;;;;8.33;74.67;97644.14;104290;1325;22510;-83
2022/01/03 04:57:14;;;;;;;5.20;2.80;;;;;;;8.37;74.54;97636.14;104348;1333;22314;-83
2022/01/03 04:59:40;;;;;;;5.40;2.80;;;;;;;8.39;74.85;97631.50;104148;1322;137926;-83
2022/01/03 05:02:07;;;;;;;4.10;2.40;;;;;;;8.42;74.72;97630.35;104115;1332;22584;-83
2022/01/03 05:04:34;;;;;;;7.20;2.60;;;;;;;8.43;74.38;97632.13;104043;1333;137920;-83
2022/01/03 05:07:01;;;;;;;4.40;2.30;;;;;;;8.46;74.35;97631.13;104144;1334;23266;-83
2022/01/03 05:09:27;;;;;;;4.50;2.30;;;;;;;8.49;74.30;97630.80;104150;1324;22547;-83
2022/01/03 05:11:55;;;;;;;4.10;2.00;;;;;;;8.52;74.25;97627.74;104114;1325;138366;-83
2022/01/03 05:14:22;;;;;;;3.00;1.90;;;;;;;8.54;74.16;97627.50;104116;1325;23253;-82
2022/01/03 05:16:49;;;;;;;6.50;2.20;;;;;;;8.57;74.00;97618.47;104100;1334;137820;-82
2022/01/03 05:19:30;;;;;;;4.00;2.10;;;;;;;8.60;73.86;97610.84;104184;1334;22218;-82
2022/01/03 05:21:56;;;;;;;5.20;2.80;;;;;;;8.61;73.84;97604.94;104263;1325;22620;-83
2022/01/03 05:24:23;;;;;;;6.20;3.40;;;;;;;8.62;73.65;97597.40;104004;1334;137683;-83
2022/01/03 05:26:50;;;;;;;4.20;2.30;;;;;;;8.64;73.65;97593.90;104193;1325;23697;-83
2022/01/03 05:29:17;;;;;;;4.30;2.10;;;;;;;8.68;73.44;97589.55;104051;1334;138476;-83
2022/01/03 05:31:44;;;;;;;9.20;4.80;;;;;;;8.71;73.61;97583.95;104245;1333;22567;-82
2022/01/03 05:34:10;;;;;;;8.30;3.90;;;;;;;8.73;73.39;97586.09;104020;1325;137824;-83
2022/01/03 05:36:36;;;;;;;6.50;3.20;;;;;;;8.75;73.23;97585.66;104227;1325;22542;-82
2022/01/03 05:39:03;;;;;;;14.20;5.00;;;;;;;8.76;73.46;97589.75;104205;1333;22517;-82
2022/01/03 05:41:29;;;;;;;19.10;6.70;;;;;;;8.76;74.11;97594.58;104062;1334;137773;-83
2022/01/03 05:43:56;;;;;;;16.00;5.60;;;;;;;8.75;74.66;97595.27;104245;1324;22498;-83
2022/01/03 05:46:23;;;;;;;15.50;5.50;;;;;;;8.73;75.19;97591.45;104041;1324;138561;-83
2022/01/03 05:48:49;;;;;;;15.20;6.00;;;;;;;8.70;75.72;97592.98;104262;1322;22360;-83
2022/01/03 05:51:16;;;;;;;22.10;8.10;;;;;;;8.65;76.04;97582.36;104144;1325;22285;-83
2022/01/03 05:53:42;;;;;;;14.80;6.30;;;;;;;8.60;76.35;97579.58;104123;1323;138456;-82
2022/01/03 05:56:09;;;;;;;10.90;3.70;;;;;;;8.55;76.62;97587.61;104140;1324;22328;-83
2022/01/03 05:58:36;;;;;;;6.50;2.40;;;;;;;8.52;76.93;97584.74;104021;1326;138578;-82
2022/01/03 06:01:03;;;;;;;3.80;1.80;;;;;;;8.49;77.02;97591.73;104106;1334;22587;-83
2022/01/03 06:03:35;;;;;;;5.40;2.50;;;;;;;8.47;77.19;97593.06;104138;1334;23057;-83
2022/01/03 06:08:27;;;;;;;7.20;2.60;;;;;;;8.42;77.97;97594.54;104272;1322;23040;-83
2022/01/03 06:10:54;;;;;;;5.30;2.10;;;;;;;8.38;78.35;97590.57;104118;1334;138464;-84
2022/01/03 06:13:24;;;;;;;5.60;1.90;;;;;;;8.34;78.89;97586.67;104163;1334;22539;-83
2022/01/03 06:15:52;;;;;;;4.20;1.50;;;;;;;8.31;79.21;97581.25;104129;1326;22525;-83
2022/01/03 06:18:20;;;;;;;6.90;2.00;;;;;;;8.29;79.44;97581.30;104060;1322;137384;-83
2022/01/03 06:20:51;;;;;;;7.40;2.90;;;;;;;8.25;79.63;97577.72;104190;1325;22532;-84
2022/01/03 06:23:19;;;;;;;;;;;;;;;8.24;79.98;97579.76;104066;1334;138090;-83
2022/01/03 06:25:47;;;;;;;7.60;2.70;;;;;;;8.21;80.29;97576.29;103957;1323;124712;-83
2022/01/03 06:28:33;;;;;;;3.50;2.50;;;;;;;8.17;80.37;97575.50;104068;1328;22460;-84
2022/01/03 06:30:59;;;;;;;3.60;2.50;;;;;;;8.15;80.57;97582.76;104082;1325;138920;-83
2022/01/03 06:33:26;;;;;;;8.60;3.60;;;;;;;8.16;81.12;97584.09;104169;1323;22459;-83
2022/01/03 06:35:53;;;;;;;7.10;4.30;;;;;;;8.15;81.19;97574.71;104079;1328;23178;-83
2022/01/03 06:38:19;;;;;;;10.90;4.70;;;;;;;8.12;81.38;97569.96;104121;1322;137514;-83
2022/01/03 06:40:45;;;;;;;10.90;4.90;;;;;;;8.10;81.51;97570.80;104147;1325;22600;-83
2022/01/03 06:43:12;;;;;;;14.80;5.80;;;;;;;8.09;81.47;97580.33;104095;1324;139315;-84
2022/01/03 06:45:38;;;;;;;12.50;5.20;;;;;;;8.08;81.62;97579.05;104183;1323;22508;-83
2022/01/03 06:48:05;;;;;;;12.20;4.70;;;;;;;8.07;81.83;97584.37;104075;1323;22715;-83
2022/01/03 06:50:34;;;;;;;10.50;4.30;;;;;;;8.04;82.14;97593.33;104103;1325;137801;-83
2022/01/03 06:53:01;;;;;;;9.10;4.10;;;;;;;8.03;82.18;97597.98;104148;1323;22593;-84
2022/01/03 06:55:28;;;;;;;9.80;3.80;;;;;;;8.01;82.01;97599.64;103918;1332;138434;-83
2022/01/03 06:57:54;;;;;;;8.40;3.60;;;;;;;8.01;82.17;97598.86;103995;1327;22534;-83
2022/01/03 07:00:37;;;;;;;5.70;2.20;;;;;;;7.99;82.12;97600.16;104027;1325;138049;-82
2022/01/03 07:03:04;;;;;;;5.40;3.30;;;;;;;7.97;82.19;97599.91;104210;1325;22551;-83
2022/01/03 07:05:30;;;;;;;6.30;2.40;;;;;;;7.96;82.15;97599.29;104189;1324;22556;-83
2022/01/03 07:07:57;;;;;;;6.40;2.50;;;;;;;7.95;82.41;97597.77;104084;1325;138610;-83
2022/01/03 07:10:23;;;;;;;2.80;1.70;;;;;;;7.96;82.45;97598.15;104298;1322;22555;-83
2022/01/03 07:12:51;;;;;;;5.90;2.40;;;;;;;7.97;82.55;97594.97;104170;1322;138038;-83
2022/01/03 07:20:49;;;;;;;5.10;2.20;;;;;;;7.99;82.98;97588.61;104090;1319;137985;-83
2022/01/03 07:23:17;;;;;;;3.70;1.70;;;;;;;8.00;82.76;97592.63;104189;1333;23005;-83
2022/01/03 07:25:44;;;;;;;8.10;2.80;;;;;;;8.01;82.50;97585.00;104164;1323;139146;-83
2022/01/03 07:28:12;;;;;;;4.70;2.40;;;;;;;8.05;82.51;97581.24;104171;1331;22918;-83
2022/01/03 07:30:38;;;;;;;6.50;2.40;;;;;;;8.08;82.79;97585.18;104163;1322;137364;-83
2022/01/03 07:33:04;;;;;;;8.50;2.60;;;;;;;8.10;82.35;97590.36;104241;1323;23216;-83
2022/01/03 07:35:31;;;;;;;6.40;2.70;;;;;;;8.11;82.30;97593.31;104111;1325;23211;-84
2022/01/03 07:37:58;;;;;;;7.50;2.70;;;;;;;8.12;82.42;97594.80;104095;1333;138480;-81
2022/01/03 07:40:25;;;;;;;5.70;2.20;;;;;;;8.14;82.32;97597.21;104290;1322;23294;-82
2022/01/03 07:42:52;;;;;;;7.10;2.60;;;;;;;8.15;82.38;97603.10;104086;1334;138323;-84
2022/01/03 07:45:19;;;;;;;4.30;2.00;;;;;;;8.15;82.70;97596.48;104221;1323;22506;-83
2022/01/03 07:47:45;;;;;;;5.90;2.60;;;;;;;8.14;82.76;97609.70;104311;1319;22729;-85
2022/01/03 07:50:12;;;;;;;3.90;2.20;;;;;;;8.12;83.27;97610.63;104103;1322;137704;-84
2022/01/03 07:52:39;;;;;;;4.30;2.20;;;;;;;8.11;83.18;97614.94;104085;1325;22569;-83
2022/01/03 07:55:07;;;;;;;7.10;2.30;;;;;;;8.09;83.46;97605.17;103990;1334;138111;-82
2022/01/03 07:57:33;;;;;;;8.00;3.30;;;;;;;8.11;83.46;97604.98;104067;1324;23024;-83
2022/01/03 08:00:00;;;;;;;9.70;2.90;;;;;;;8.10;83.56;97611.63;104097;1334;22635;-83
2022/01/03 08:02:28;;;;;;;6.20;2.60;;;;;;;8.09;83.47;97622.42;104174;1322;137370;-83
2022/01/03 08:04:55;;;;;;;5.40;2.70;;;;;;;8.08;83.38;97624.20;104096;1325;22562;-83
2022/01/03 08:07:21;;;;;;;6.80;2.20;;;;;;;8.11;83.28;97623.63;104033;1334;138324;-83
2022/01/03 08:09:48;;;;;;;7.60;2.60;;;;;;;8.14;83.17;97626.72;104163;1325;23323;-82
2022/01/03 08:12:16;;;;;;;6.10;2.60;;;;;;;8.18;83.17;97629.86;104298;1321;23347;-82
2022/01/03 08:14:45;;;;;;;6.70;2.80;;;;;;;8.21;83.09;97631.09;104090;1322;137685;-83
2022/01/03 08:17:11;;;;;;;6.80;2.90;;;;;;;8.23;82.72;97629.71;104120;1326;23138;-82
2022/01/03 08:19:37;;;;;;;4.10;1.80;;;;;;;8.27;82.40;97617.52;104143;1322;137808;-83
2022/01/03 08:22:42;;;;;;;6.00;2.20;;;;;;;8.34;81.95;97620.95;103599;1306;545311;-86
2022/01/03 08:25:10;;;;;;;4.80;2.60;;;;;;;8.35;81.74;97620.59;104913;1291;136894;-87
2022/01/03 08:27:36;;;;;;;6.20;2.40;;;;;;;8.36;81.66;97622.14;104695;1294;24387;-82
2022/01/03 08:30:04;;;;;;;3.80;2.50;;;;;;;8.38;81.48;97626.67;104739;1293;22748;-84
2022/01/03 08:32:31;;;;;;;3.70;1.90;;;;;;;8.39;81.07;97618.74;104689;1292;136769;-83
2022/01/03 08:34:58;;;;;;;5.10;2.40;;;;;;;8.40;81.08;97615.98;105014;1293;25001;-83
2022/01/03 08:37:25;;;;;;;5.40;2.10;;;;;;;8.41;81.04;97617.10;105090;1290;136317;-84
2022/01/03 08:39:53;;;;;;;6.70;2.10;;;;;;;8.41;80.62;97617.42;105206;1290;22580;-86
2022/01/03 08:42:20;;;;;;;4.30;1.80;;;;;;;8.40;80.76;97623.16;105260;1290;22806;-81
2022/01/03 08:44:47;;;;;;;3.50;1.80;;;;;;;8.40;80.39;97627.17;104940;1292;137567;-83
2022/01/03 08:47:14;;;;;;;4.50;1.90;;;;;;;8.41;80.02;97633.27;104940;1290;22558;-84
2022/01/03 08:49:41;;;;;;;5.80;2.10;;;;;;;8.42;79.90;97626.67;104902;1290;136873;-84
2022/01/03 08:52:10;;;;;;;6.40;2.50;;;;;;;8.43;79.78;97635.42;105013;1290;22650;-83
2022/01/03 08:54:37;;;;;;;4.80;2.90;;;;;;;8.42;79.60;97638.40;105100;1290;23202;-83
2022/01/03 08:57:04;;;;;;;6.30;3.00;;;;;;;8.42;79.68;97635.39;104890;1290;137079;-85
2022/01/03 08:59:32;;;;;;;7.90;2.50;;;;;;;8.43;79.54;97632.92;104978;1290;23233;-83
2022/01/03 09:01:59;;;;;;;7.00;2.40;;;;;;;8.45;79.28;97628.25;105197;1290;137136;-83
2022/01/03 09:04:26;;;;;;;3.70;1.90;;;;;;;8.47;78.98;97627.34;105549;1290;23260;-82
2022/01/03 09:06:53;;;;;;;4.30;2.00;;;;;;;8.50;78.62;97642.30;105010;1289;138385;-82
2022/01/03 09:09:20;;;;;;;2.90;1.40;;;;;;;8.51;78.22;97634.94;105097;1290;22706;-83
2022/01/03 09:12:03;;;;;;;3.60;2.00;;;;;;;8.52;78.15;97631.38;104547;1292;22584;-78
2022/01/03 09:14:30;;;;;;;5.00;2.00;;;;;;;8.53;78.10;97635.57;105317;1289;137265;-81
2022/01/03 09:16:57;;;;;;;6.40;2.30;;;;;;;8.54;78.11;97638.40;105274;1290;22584;-82
2022/01/03 09:19:24;;;;;;;3.40;1.90;;;;;;;8.56;77.50;97634.19;105109;1290;137166;-82
2022/01/03 09:21:57;;;;;;;5.30;2.10;;;;;;;8.58;76.97;97638.94;105595;1289;23215;-83
2022/01/03 09:24:30;;;;;;;3.00;2.00;;;;;;;8.58;76.93;97641.94;105927;1290;25409;-82
2022/01/03 09:29:45;;;;;;;4.00;2.00;;;;;;;8.62;76.91;97641.21;105319;1290;23425;-82
2022/01/03 09:32:12;;;;;;;3.50;2.10;;;;;;;8.65;76.43;97642.11;105280;1289;137031;-82
2022/01/03 09:34:39;;;;;;;3.90;2.20;;;;;;;8.68;76.34;97634.12;105289;1289;22580;-83
2022/01/03 09:37:06;;;;;;;6.10;2.20;;;;;;;8.71;76.39;97636.76;105002;1289;136993;-82
2022/01/03 09:39:33;;;;;;;7.00;2.40;;;;;;;8.74;76.29;97637.55;105107;1290;22557;-81
2022/01/03 09:42:07;;;;;;;5.80;2.20;;;;;;;8.80;76.28;97634.63;104845;1289;25261;-82
2022/01/03 09:44:35;;;;;;;3.80;1.80;;;;;;;8.89;76.11;97633.59;105339;1290;137651;-82
2022/01/03 09:47:05;;;;;;;3.20;1.90;;;;;;;8.95;75.94;97631.22;105347;1290;23346;-82
2022/01/03 09:49:36;;;;;;;4.30;2.00;;;;;;;8.98;75.32;97627.23;105123;1290;136695;-81
2022/01/03 09:52:05;;;;;;;4.40;2.70;;;;;;;9.02;74.83;97625.33;104924;1291;22595;-83
2022/01/03 09:54:32;;;;;;;;;;;;;;;9.06;74.83;97623.41;105243;1289;22812;-82
2022/01/03 09:57:01;;;;;;;4.60;2.10;;;;;;;9.10;74.81;97621.11;105196;1289;122909;-82
2022/01/03 09:59:30;;;;;;;3.40;1.80;;;;;;;9.15;74.58;97622.69;105920;1283;22575;-83
2022/01/03 10:01:58;;;;;;;3.30;1.80;;;;;;;9.22;74.42;97622.16;106115;1283;137955;-82
2022/01/03 10:04:25;;;;;;;5.10;1.80;;;;;;;9.28;74.38;97613.46;106007;1283;25562;-81
2022/01/03 10:06:52;;;;;;;6.60;2.20;;;;;;;9.38;74.09;97613.61;105871;1284;138382;-81
2022/01/03 10:09:20;;;;;;;4.20;1.80;;;;;;;9.48;73.45;97608.42;105801;1283;22628;-82
2022/01/03 10:11:47;;;;;;;5.90;2.10;;;;;;;9.59;73.56;97615.91;106131;1283;24229;-82
2022/01/03 10:14:15;;;;;;;5.20;2.00;;;;;;;9.66;72.99;97611.79;105870;1283;137023;-83
2022/01/03 10:16:43;;;;;;;4.40;1.90;;;;;;;9.74;72.74;97610.70;105778;1283;24308;-82
2022/01/03 10:19:24;;;;;;;4.20;1.80;;;;;;;9.82;72.42;97608.85;105325;1285;137391;-84
2022/01/03 10:21:52;;;;;;;2.20;1.40;;;;;;;9.89;72.38;97610.32;105785;1283;25326;-84
2022/01/03 10:24:31;;;;;;;4.20;1.60;;;;;;;9.95;72.43;97611.50;105574;1283;22638;-84
2022/01/03 10:26:59;;;;;;;3.60;1.60;;;;;;;9.93;70.96;97613.01;105753;1283;140144;-82
2022/01/03 10:29:41;;;;;;;2.40;1.30;;;;;;;9.89;70.42;97607.38;105809;1283;25122;-82
2022/01/03 10:32:12;;;;;;;5.10;2.00;;;;;;;9.83;69.27;97616.91;105547;1283;137039;-82
2022/01/03 10:34:39;;;;;;;2.30;1.40;;;;;;;9.78;69.76;97614.05;105801;1283;22711;-83
2022/01/03 10:37:13;;;;;;;2.80;1.40;;;;;;;9.74;70.31;97622.98;105368;1283;137010;-82
2022/01/03 10:39:40;;;;;;;2.80;1.60;;;;;;;9.69;69.91;97625.77;105715;1283;25507;-82
2022/01/03 10:42:17;;;;;;;4.00;1.40;;;;;;;9.69;70.17;97626.32;105926;1283;22602;-83
2022/01/03 10:44:45;;;;;;;2.80;1.60;;;;;;;9.75;70.27;97618.53;105852;1283;137339;-82
2022/01/03 10:47:15;;;;;;;4.80;1.80;;;;;;;9.82;70.66;97612.66;105793;1283;22702;-82
2022/01/03 10:49:44;;;;;;;3.10;1.20;;;;;;;9.84;70.88;97611.92;105887;1283;137387;-82
2022/01/03 10:52:19;;;;;;;3.40;1.80;;;;;;;9.84;71.00;97613.83;106065;1282;22559;-85
2022/01/03 10:55:26;;;;;;;3.70;1.70;;;;;;;9.82;71.25;97611.52;105587;1283;137626;-82
2022/01/03 10:57:55;;;;;;;3.60;1.80;;;;;;;9.83;71.56;97600.71;105883;1283;23926;-82
2022/01/03 11:00:31;;;;;;;2.50;1.40;;;;;;;9.91;71.97;97610.11;105876;1283;22575;-82
2022/01/03 11:05:52;;;;;;;3.70;1.60;;;;;;;10.11;71.01;97598.33;105697;1283;22579;-83
2022/01/03 11:11:12;;;;;;;2.80;1.40;;;;;;;10.20;70.74;97583.63;105829;1281;23962;-84
2022/01/03 11:13:48;;;;;;;4.30;1.80;;;;;;;10.16;70.49;97581.44;105488;1283;137176;-83
2022/01/03 11:16:15;;;;;;;4.50;2.10;;;;;;;10.07;69.81;97577.15;105889;1283;25439;-82
2022/01/03 11:18:47;;;;;;;3.20;1.50;;;;;;;9.99;69.29;97578.60;105705;1283;137188;-82
2022/01/03 11:21:26;;;;;;;4.50;1.70;;;;;;;9.93;69.84;97581.62;105955;1283;22719;-82
2022/01/03 11:23:59;;;;;;;4.70;1.70;;;;;;;9.85;69.13;97582.98;105392;1283;25272;-81
2022/01/03 11:26:28;;;;;;;8.10;2.40;;;;;;;9.75;69.39;97584.44;105995;1281;139428;-82
2022/01/03 11:28:56;;;;;;;5.10;2.00;;;;;;;9.66;69.39;97578.40;105983;1281;23171;-83
2022/01/03 11:31:23;;;;;;;8.40;3.10;;;;;;;9.61;69.69;97571.17;105682;1283;137509;-82
2022/01/03 11:33:52;;;;;;;3.70;1.80;;;;;;;9.58;70.14;97573.89;105853;1283;22737;-82
2022/01/03 11:36:34;;;;;;;3.90;1.60;;;;;;;9.56;69.50;97569.48;105673;1283;22573;-82
2022/01/03 11:39:08;;;;;;;4.40;1.70;;;;;;;9.58;69.81;97569.64;105202;1283;137246;-82
2022/01/03 11:41:38;;;;;;;5.70;1.90;;;;;;;9.62;70.07;97563.64;105451;1283;25268;-82
2022/01/03 11:44:06;;;;;;;3.30;1.70;;;;;;;9.65;70.17;97568.51;105544;1283;137889;-83
2022/01/03 11:46:34;;;;;;;8.80;2.40;;;;;;;9.69;70.63;97571.79;105698;1283;22582;-82
2022/01/03 11:49:02;;;;;;;5.20;2.20;;;;;;;9.69;69.96;97570.42;105710;1283;137957;-82
2022/01/03 11:51:32;;;;;;;5.00;2.00;;;;;;;9.67;69.68;97570.95;105758;1282;22593;-82
2022/01/03 11:53:59;;;;;;;4.40;1.90;;;;;;;9.61;69.83;97569.23;105621;1283;23142;-83
2022/01/03 11:56:29;;;;;;;4.40;2.40;;;;;;;9.54;68.99;97566.66;105623;1283;137343;-82
2022/01/03 11:59:21;;;;;;;4.60;1.90;;;;;;;9.45;69.49;97564.70;105644;1283;24267;-82